Time;durP1;ratioP1;P1;durP2;ratioP2;P2;SDS_P1;SDS_P2;PMS_P1;PMS_P2;Temp;Humidity;BMP_temperature;BMP_pressure;BME280_temperature;BME280_humidity;BME280_pressure;Samples;Min_cycle;Max_cycle;Signal;HPM_P1;HPM_P2
2022/07/07 00:01:33;;;;;;;8.48;5.45;;;16.30;99.90;;;;;;5079627;28;20070;-77
2022/07/07 00:04:01;;;;;;;8.48;5.30;;;16.30;99.90;;;;;;5086454;28;20040;-77
2022/07/07 00:06:28;;;;;;;10.05;5.13;;;16.30;99.90;;;;;;5089667;28;20055;-77
2022/07/07 00:08:54;;;;;;;7.93;5.07;;;16.30;99.90;;;;;;5069985;28;20052;-78
2022/07/07 00:11:22;;;;;;;10.23;4.88;;;16.30;99.90;;;;;;5067563;28;20403;-77
2022/07/07 00:13:47;;;;;;;8.38;5.60;;;16.30;99.90;;;;;;5084915;28;20036;-77
2022/07/07 00:16:13;;;;;;;9.52;4.95;;;16.30;99.90;;;;;;5082983;28;20481;-77
2022/07/07 00:18:39;;;;;;;7.20;5.57;;;16.30;99.90;;;;;;5087462;28;20117;-78
2022/07/07 00:21:05;;;;;;;8.18;4.65;;;16.30;99.90;;;;;;5083931;28;20043;-79
2022/07/07 00:23:31;;;;;;;7.82;5.35;;;16.30;99.90;;;;;;5086107;28;20047;-80
2022/07/07 00:25:56;;;;;;;8.10;5.65;;;16.30;99.90;;;;;;5070421;28;20448;-78
2022/07/07 00:28:22;;;;;;;9.65;5.97;;;16.30;99.90;;;;;;5085020;28;20044;-80
2022/07/07 00:30:48;;;;;;;8.32;5.18;;;16.30;99.90;;;;;;5085949;28;20128;-78
2022/07/07 00:33:14;;;;;;;9.32;4.95;;;16.30;99.90;;;;;;5083458;28;20032;-77
2022/07/07 00:35:40;;;;;;;9.18;5.35;;;16.30;99.90;;;;;;5067364;28;20051;-78
2022/07/07 00:38:06;;;;;;;9.10;5.53;;;16.30;99.90;;;;;;5083389;28;20040;-78
2022/07/07 00:40:32;;;;;;;13.52;5.93;;;16.30;99.90;;;;;;5066605;28;20040;-78
2022/07/07 00:42:57;;;;;;;8.95;6.05;;;16.30;99.90;;;;;;5083037;28;20119;-78
2022/07/07 00:45:24;;;;;;;9.07;5.40;;;16.30;99.90;;;;;;5066048;28;20131;-79
2022/07/07 00:47:49;;;;;;;9.73;5.63;;;16.20;99.90;;;;;;5052622;28;20090;-79
2022/07/07 00:50:19;;;;;;;8.88;3.45;;;16.20;99.90;;;;;;5087232;28;20063;-78
2022/07/07 00:52:45;;;;;;;6.93;2.92;;;16.20;99.90;;;;;;5086702;28;20075;-79
2022/07/07 00:55:11;;;;;;;5.97;2.58;;;16.20;99.90;;;;;;5087352;28;20118;-78
2022/07/07 00:57:37;;;;;;;7.53;2.40;;;16.10;99.90;;;;;;5083236;28;20107;-79
2022/07/07 01:00:09;;;;;;;6.00;2.00;;;16.10;99.90;;;;;;5083328;28;20049;-79
2022/07/07 01:02:35;;;;;;;5.93;2.00;;;16.10;99.90;;;;;;5088759;28;20451;-79
2022/07/07 01:05:04;;;;;;;6.78;2.60;;;16.00;99.90;;;;;;5080080;28;20059;-79
2022/07/07 01:07:32;;;;;;;7.43;2.70;;;15.90;99.90;;;;;;5084812;28;20071;-79
2022/07/07 01:09:59;;;;;;;5.88;2.95;;;16.00;99.90;;;;;;5068730;28;20080;-79
2022/07/07 01:12:25;;;;;;;5.53;2.60;;;15.90;99.90;;;;;;5065115;28;20070;-78
2022/07/07 01:14:51;;;;;;;5.03;1.92;;;15.90;99.90;;;;;;5085506;28;20040;-80
2022/07/07 01:17:17;;;;;;;6.15;2.40;;;15.90;99.90;;;;;;5083529;28;20067;-79
2022/07/07 01:19:42;;;;;;;4.30;2.00;;;16.50;99.90;;;;;;5083658;28;20068;-79
2022/07/07 01:22:15;;;;;;;5.47;1.92;;;16.60;99.90;;;;;;5084005;28;20458;-80
2022/07/07 01:24:42;;;;;;;6.53;2.30;;;15.80;99.90;;;;;;5084729;28;20032;-80
2022/07/07 01:27:15;;;;;;;5.45;2.00;;;15.80;99.90;;;;;;5087545;28;20044;-80
2022/07/07 01:29:47;;;;;;;7.18;2.38;;;15.80;99.90;;;;;;5064198;28;20437;-79
2022/07/07 01:32:13;;;;;;;4.43;2.00;;;15.80;99.90;;;;;;5087700;28;20114;-81
2022/07/07 01:34:41;;;;;;;4.28;2.15;;;15.70;99.90;;;;;;5087914;28;20159;-81
2022/07/07 01:37:07;;;;;;;5.13;2.45;;;15.70;99.90;;;;;;5063545;28;20056;-82
2022/07/07 01:39:33;;;;;;;8.07;2.28;;;15.70;99.90;;;;;;5087728;28;20483;-80
2022/07/07 01:41:59;;;;;;;7.53;3.10;;;15.70;99.90;;;;;;5087082;28;20115;-79
2022/07/07 01:44:25;;;;;;;5.25;2.60;;;15.70;99.90;;;;;;5086981;28;20123;-79
2022/07/07 01:46:50;;;;;;;5.88;2.20;;;16.70;99.90;;;;;;5092486;28;20274;-79
2022/07/07 01:49:16;;;;;;;7.45;2.90;;;15.70;99.90;;;;;;5088329;28;20040;-79
2022/07/07 01:51:42;;;;;;;6.07;2.85;;;16.60;99.90;;;;;;5089391;28;20039;-80
2022/07/07 01:54:08;;;;;;;11.13;3.17;;;16.10;99.90;;;;;;5091324;28;20654;-81
2022/07/07 01:56:34;;;;;;;7.50;2.80;;;15.80;99.90;;;;;;5088497;28;20498;-80
2022/07/07 01:59:00;;;;;;;12.32;4.28;;;15.70;99.90;;;;;;5072313;28;20044;-80
2022/07/07 02:01:25;;;;;;;8.57;2.85;;;15.70;99.90;;;;;;5068652;28;20044;-81
2022/07/07 02:03:51;;;;;;;11.98;2.47;;;15.70;99.90;;;;;;5089939;28;20036;-81
2022/07/07 02:06:17;;;;;;;7.85;3.25;;;16.40;99.90;;;;;;5068707;28;20380;-82
2022/07/07 02:08:42;;;;;;;14.45;3.95;;;15.70;99.90;;;;;;5087598;28;20501;-81
2022/07/07 02:11:14;;;;;;;11.85;3.40;;;15.70;99.90;;;;;;5061869;28;20048;-81
2022/07/07 02:13:47;;;;;;;12.65;2.65;;;15.70;99.90;;;;;;5082285;28;20032;-81
2022/07/07 02:16:14;;;;;;;10.68;2.90;;;15.70;99.90;;;;;;5072832;28;20064;-81
2022/07/07 02:18:41;;;;;;;12.45;3.33;;;15.80;99.90;;;;;;5069202;28;20123;-81
2022/07/07 02:21:09;;;;;;;8.98;2.83;;;16.10;99.90;;;;;;5089697;28;20040;-80
2022/07/07 02:23:36;;;;;;;10.45;2.70;;;16.10;99.90;;;;;;5067776;28;20398;-81
2022/07/07 02:26:02;;;;;;;8.02;2.58;;;16.00;99.90;;;;;;5088936;28;20059;-80
2022/07/07 02:28:28;;;;;;;8.43;2.78;;;15.70;99.90;;;;;;5085128;28;20120;-81
2022/07/07 02:30:54;;;;;;;6.75;2.63;;;15.80;99.90;;;;;;5069466;28;20123;-80
2022/07/07 02:33:21;;;;;;;7.82;2.28;;;15.80;99.90;;;;;;5090192;28;20048;-82
2022/07/07 02:35:48;;;;;;;10.98;1.98;;;15.80;99.90;;;;;;5086022;28;20067;-81
2022/07/07 02:38:14;;;;;;;4.82;1.55;;;17.10;99.90;;;;;;5071545;28;20043;-81
2022/07/07 02:40:40;;;;;;;11.00;2.22;;;15.80;99.90;;;;;;5090803;28;20036;-81
2022/07/07 02:43:06;;;;;;;12.85;2.17;;;15.80;99.90;;;;;;5090302;28;20028;-81
2022/07/07 02:45:31;;;;;;;8.88;2.10;;;15.80;99.90;;;;;;5072846;28;20498;-82
2022/07/07 02:47:57;;;;;;;10.00;1.58;;;15.70;99.90;;;;;;5089056;28;20121;-82
2022/07/07 02:50:23;;;;;;;9.02;2.08;;;15.70;99.90;;;;;;5085677;28;20122;-81
2022/07/07 02:52:48;;;;;;;7.10;1.55;;;15.70;99.90;;;;;;5090283;28;20093;-82
2022/07/07 02:55:14;;;;;;;10.00;2.00;;;15.70;99.90;;;;;;5084784;28;20080;-81
2022/07/07 02:57:40;;;;;;;4.68;1.08;;;16.50;99.90;;;;;;5087144;28;20446;-81
2022/07/07 03:00:08;;;;;;;8.77;1.30;;;15.70;99.90;;;;;;5056303;28;20040;-81
2022/07/07 03:02:34;;;;;;;9.93;1.35;;;15.70;99.90;;;;;;5086836;28;20074;-81
2022/07/07 03:05:00;;;;;;;8.02;1.35;;;15.60;99.90;;;;;;5088606;28;20040;-81
2022/07/07 03:07:26;;;;;;;8.90;1.30;;;16.60;99.90;;;;;;5082924;28;20120;-80
2022/07/07 03:09:51;;;;;;;7.20;2.03;;;15.60;99.90;;;;;;5089999;28;20085;-80
2022/07/07 03:12:17;;;;;;;13.63;1.95;;;15.60;99.90;;;;;;5085525;28;20028;-80
2022/07/07 03:14:43;;;;;;;14.82;2.08;;;15.60;99.90;;;;;;5070142;28;20043;-81
2022/07/07 03:17:08;;;;;;;7.63;1.80;;;15.60;99.90;;;;;;5090766;28;20042;-80
2022/07/07 03:19:39;;;;;;;7.10;1.48;;;15.60;99.90;;;;;;5089904;28;20036;-79
2022/07/07 03:22:04;;;;;;;10.73;1.95;;;16.60;99.90;;;;;;5067818;28;20123;-81
2022/07/07 03:24:31;;;;;;;15.82;2.53;;;16.90;99.90;;;;;;5090023;28;20052;-79
2022/07/07 03:26:59;;;;;;;10.10;2.08;;;15.60;99.90;;;;;;5090024;28;20513;-77
2022/07/07 03:29:25;;;;;;;14.90;2.47;;;15.60;99.90;;;;;;5090476;28;20059;-78
2022/07/07 03:32:14;;;;;;;9.43;1.50;;;15.60;99.90;;;;;;5066589;28;20110;-80
2022/07/07 03:34:39;;;;;;;7.80;1.75;;;15.90;99.90;;;;;;5049848;28;20488;-79
2022/07/07 03:37:05;;;;;;;5.63;1.30;;;15.50;99.90;;;;;;5072448;28;20138;-79
2022/07/07 03:39:31;;;;;;;6.88;1.45;;;15.90;99.90;;;;;;5069211;28;20102;-79
2022/07/07 03:41:56;;;;;;;9.35;1.65;;;15.50;99.90;;;;;;5093423;28;20055;-80
2022/07/07 03:44:22;;;;;;;8.82;1.40;;;15.50;99.90;;;;;;5090503;28;20030;-81
2022/07/07 03:46:47;;;;;;;8.85;1.40;;;15.50;99.90;;;;;;5089251;28;20040;-78
2022/07/07 03:49:16;;;;;;;10.75;1.48;;;15.40;99.90;;;;;;5090238;28;20097;-77
2022/07/07 03:51:42;;;;;;;6.85;0.93;;;14.60;99.90;;;;;;5050894;28;20040;-79
2022/07/07 03:54:07;;;;;;;7.45;1.20;;;15.60;99.90;;;;;;5084812;28;20089;-80
2022/07/07 03:56:33;;;;;;;11.25;1.40;;;15.40;99.90;;;;;;5063624;28;20308;-80
2022/07/07 03:58:59;;;;;;;9.63;1.10;;;15.40;99.90;;;;;;5069869;28;20125;-80
2022/07/07 04:01:24;;;;;;;8.20;0.90;;;15.40;99.90;;;;;;5085762;28;20055;-81
2022/07/07 04:03:50;;;;;;;7.97;1.33;;;15.40;99.90;;;;;;5089093;28;20032;-80
2022/07/07 04:06:18;;;;;;;5.75;0.98;;;15.40;99.90;;;;;;5093144;28;20052;-79
2022/07/07 04:08:46;;;;;;;6.80;0.95;;;16.50;99.90;;;;;;5086462;28;20032;-79
2022/07/07 04:11:11;;;;;;;10.10;0.82;;;15.40;99.90;;;;;;5082604;28;20093;-80
2022/07/07 04:13:38;;;;;;;7.93;0.88;;;15.30;99.90;;;;;;5087656;28;20382;-79
2022/07/07 04:16:04;;;;;;;9.32;1.42;;;15.20;99.90;;;;;;5086809;28;20040;-79
2022/07/07 04:18:30;;;;;;;13.88;2.58;;;15.20;99.90;;;;;;5092892;22;20085;-80
2022/07/07 04:20:55;;;;;;;8.30;0.88;;;15.20;99.90;;;;;;5068838;28;20506;-81
2022/07/07 04:23:21;;;;;;;11.98;2.28;;;15.10;99.90;;;;;;5069940;28;20047;-81
2022/07/07 04:25:46;;;;;;;7.13;1.27;;;15.10;99.90;;;;;;5070325;28;20396;-78
2022/07/07 04:28:12;;;;;;;9.95;1.35;;;15.10;99.90;;;;;;5052276;28;20028;-79
2022/07/07 04:30:41;;;;;;;4.57;1.15;;;15.10;99.90;;;;;;5069691;28;20100;-78
2022/07/07 04:33:06;;;;;;;6.63;1.77;;;15.30;99.90;;;;;;5069896;28;20500;-79
2022/07/07 04:35:32;;;;;;;6.15;1.38;;;15.00;99.90;;;;;;5071203;28;20059;-78
2022/07/07 04:37:57;;;;;;;6.07;0.90;;;16.20;99.90;;;;;;5052021;28;20430;-79
2022/07/07 04:40:23;;;;;;;9.05;1.30;;;15.00;99.90;;;;;;5051785;28;20480;-80
2022/07/07 04:42:49;;;;;;;9.18;1.27;;;15.00;99.90;;;;;;5047433;28;20045;-80
2022/07/07 04:45:16;;;;;;;6.93;0.98;;;15.00;99.90;;;;;;5066960;28;20040;-79
2022/07/07 04:47:43;;;;;;;5.30;0.98;;;15.00;99.90;;;;;;5050551;28;20082;-79
2022/07/07 04:50:10;;;;;;;8.55;0.90;;;15.00;99.90;;;;;;5068939;28;20044;-79
2022/07/07 04:52:40;;;;;;;6.28;1.00;;;15.00;99.90;;;;;;5069341;28;20036;-78
2022/07/07 04:55:06;;;;;;;5.88;1.02;;;15.00;99.90;;;;;;5025274;28;20488;-78
2022/07/07 04:57:32;;;;;;;6.22;0.88;;;15.00;99.90;;;;;;5068783;28;20037;-79
2022/07/07 04:59:58;;;;;;;8.68;1.63;;;15.00;99.90;;;;;;5050402;28;20430;-79
2022/07/07 05:02:26;;;;;;;9.05;1.65;;;15.00;99.90;;;;;;5062858;28;20074;-78
2022/07/07 05:04:52;;;;;;;8.95;1.15;;;15.00;99.90;;;;;;5068434;28;20438;-79
2022/07/07 05:07:18;;;;;;;11.88;1.75;;;14.90;99.90;;;;;;5069862;28;20040;-78
2022/07/07 05:09:44;;;;;;;8.43;1.23;;;14.90;99.90;;;;;;5063797;28;20033;-78
2022/07/07 05:12:10;;;;;;;12.18;1.85;;;14.90;99.90;;;;;;5033961;28;20464;-78
2022/07/07 05:14:36;;;;;;;7.57;0.93;;;14.90;99.90;;;;;;5068641;28;20127;-79
2022/07/07 05:17:02;;;;;;;5.72;1.08;;;14.90;99.90;;;;;;5068440;28;20076;-77
2022/07/07 05:19:27;;;;;;;8.73;1.45;;;15.00;99.90;;;;;;5072160;28;20084;-79
2022/07/07 05:21:53;;;;;;;9.88;2.00;;;14.90;99.90;;;;;;5072011;28;20529;-79
2022/07/07 05:24:20;;;;;;;9.90;1.55;;;14.90;99.90;;;;;;5077377;28;20036;-77
2022/07/07 05:26:46;;;;;;;6.60;1.35;;;15.10;99.90;;;;;;5064368;28;20047;-79
2022/07/07 05:29:12;;;;;;;9.02;1.98;;;14.80;99.90;;;;;;5071404;28;20040;-78
2022/07/07 05:31:38;;;;;;;10.65;1.60;;;14.90;99.90;;;;;;5071872;28;20436;-78
2022/07/07 05:34:03;;;;;;;10.32;2.25;;;14.80;99.90;;;;;;5072528;28;20116;-79
2022/07/07 05:36:30;;;;;;;6.57;1.40;;;14.90;99.90;;;;;;5074821;28;20086;-78
2022/07/07 05:38:56;;;;;;;10.27;1.88;;;14.90;99.90;;;;;;5063735;28;20053;-78
2022/07/07 05:41:21;;;;;;;8.93;1.48;;;14.90;99.90;;;;;;5076151;22;20060;-79
2022/07/07 05:43:48;;;;;;;11.20;1.83;;;15.00;99.90;;;;;;5071759;28;20552;-78
2022/07/07 05:46:14;;;;;;;10.60;2.00;;;14.90;99.90;;;;;;5073699;28;20044;-77
2022/07/07 05:48:41;;;;;;;7.75;1.73;;;14.90;99.90;;;;;;5074930;28;20043;-79
2022/07/07 05:51:09;;;;;;;15.50;2.63;;;14.90;99.90;;;;;;5072203;28;20048;-79
2022/07/07 05:53:35;;;;;;;9.75;1.50;;;15.70;99.90;;;;;;5053728;28;20025;-79
2022/07/07 05:56:01;;;;;;;12.63;1.48;;;14.90;99.90;;;;;;5072366;28;20049;-78
2022/07/07 05:58:27;;;;;;;12.02;1.50;;;14.90;99.90;;;;;;5072832;28;20044;-78
2022/07/07 06:00:52;;;;;;;9.85;1.60;;;14.90;99.90;;;;;;5052130;28;20064;-78
2022/07/07 06:03:18;;;;;;;12.00;2.08;;;14.90;99.90;;;;;;5071345;28;20045;-78
2022/07/07 06:05:43;;;;;;;12.65;1.85;;;15.00;99.90;;;;;;5064669;28;20118;-78
2022/07/07 06:08:09;;;;;;;8.32;1.38;;;15.00;99.90;;;;;;5069430;28;20106;-80
2022/07/07 06:10:36;;;;;;;5.63;1.20;;;15.00;99.90;;;;;;5064684;28;20033;-79
2022/07/07 06:13:02;;;;;;;15.35;7.75;;;15.00;99.90;;;;;;5055250;28;20048;-79
2022/07/07 06:15:27;;;;;;;9.45;1.92;;;15.00;99.90;;;;;;5072111;28;20028;-79
2022/07/07 06:17:54;;;;;;;9.80;1.67;;;15.20;99.90;;;;;;5072077;28;20427;-79
2022/07/07 06:20:19;;;;;;;7.32;1.08;;;15.10;99.90;;;;;;5071953;28;20340;-79
2022/07/07 06:22:45;;;;;;;4.68;0.98;;;15.10;99.90;;;;;;5065462;28;20044;-79
2022/07/07 06:25:10;;;;;;;9.55;1.48;;;15.00;99.90;;;;;;5072266;28;20541;-79
2022/07/07 06:27:36;;;;;;;7.70;0.77;;;15.00;99.90;;;;;;5071137;28;20045;-79
2022/07/07 06:30:06;;;;;;;3.75;0.70;;;14.90;99.90;;;;;;5073221;28;20048;-79
2022/07/07 06:32:32;;;;;;;5.95;0.70;;;14.90;99.90;;;;;;5071576;28;20667;-77
2022/07/07 06:34:58;;;;;;;4.18;0.68;;;14.90;99.90;;;;;;5071042;28;20086;-79
2022/07/07 06:37:24;;;;;;;7.10;0.77;;;15.00;99.90;;;;;;5072038;28;20036;-78
2022/07/07 06:39:50;;;;;;;5.90;0.88;;;14.90;99.90;;;;;;5071666;28;20403;-78
2022/07/07 06:42:15;;;;;;;5.63;0.70;;;15.00;99.90;;;;;;5062448;28;20060;-79
2022/07/07 06:44:41;;;;;;;4.75;1.23;;;15.00;99.90;;;;;;5070426;28;20044;-79
2022/07/07 06:47:07;;;;;;;4.05;0.90;;;15.10;99.90;;;;;;5065602;28;20040;-79
2022/07/07 06:49:33;;;;;;;10.75;0.80;;;15.20;99.90;;;;;;5071126;28;20051;-80
2022/07/07 06:51:58;;;;;;;7.55;0.95;;;15.30;99.90;;;;;;5070322;28;20135;-80
2022/07/07 06:54:24;;;;;;;6.78;1.27;;;15.40;99.90;;;;;;5071915;28;20575;-79
2022/07/07 06:56:50;;;;;;;6.57;1.02;;;15.40;99.90;;;;;;5071111;28;20051;-77
2022/07/07 06:59:16;;;;;;;7.22;0.93;;;15.30;99.90;;;;;;5053900;28;20131;-78
2022/07/07 07:01:42;;;;;;;4.10;0.60;;;15.30;99.90;;;;;;5071048;28;20373;-77
2022/07/07 07:04:09;;;;;;;7.15;0.90;;;15.40;99.90;;;;;;5071194;28;20040;-77
2022/07/07 07:06:35;;;;;;;4.75;0.90;;;15.70;99.90;;;;;;5069538;28;20041;-79
2022/07/07 07:09:02;;;;;;;5.10;1.10;;;15.60;99.90;;;;;;5071266;28;20115;-79
2022/07/07 07:11:28;;;;;;;9.02;4.43;;;15.40;99.90;;;;;;5067901;28;20091;-80
2022/07/07 07:13:56;;;;;;;3.03;0.70;;;15.50;99.90;;;;;;5048620;28;20044;-80
2022/07/07 07:16:21;;;;;;;4.20;0.70;;;15.50;99.90;;;;;;5053732;28;20044;-78
2022/07/07 07:18:47;;;;;;;6.25;0.90;;;15.50;99.90;;;;;;5054030;28;20037;-79
2022/07/07 07:21:13;;;;;;;10.75;1.45;;;15.50;99.90;;;;;;5071296;28;20056;-78
2022/07/07 07:23:39;;;;;;;6.07;1.00;;;15.50;99.90;;;;;;5052721;28;20040;-79
2022/07/07 07:26:06;;;;;;;11.98;2.78;;;15.50;99.90;;;;;;5069793;28;20048;-79
2022/07/07 07:28:33;;;;;;;9.38;3.28;;;15.60;99.90;;;;;;5060785;28;20081;-79
2022/07/07 07:30:59;;;;;;;7.15;1.23;;;15.60;99.90;;;;;;5070021;28;20087;-79
2022/07/07 07:33:25;;;;;;;9.68;0.88;;;15.60;99.90;;;;;;5070630;28;20045;-79
2022/07/07 07:35:50;;;;;;;7.80;1.17;;;15.60;99.90;;;;;;5070339;28;20043;-79
2022/07/07 07:38:16;;;;;;;3.47;0.73;;;15.60;99.90;;;;;;5069693;28;20074;-78
2022/07/07 07:40:42;;;;;;;3.28;0.55;;;15.60;99.90;;;;;;5064939;28;20046;-79
2022/07/07 07:43:07;;;;;;;5.63;1.05;;;15.60;99.90;;;;;;5046945;28;20492;-79
2022/07/07 07:45:33;;;;;;;4.50;0.70;;;15.60;99.90;;;;;;5071728;28;20041;-78
2022/07/07 07:48:02;;;;;;;5.60;0.60;;;15.60;99.90;;;;;;5028521;28;20123;-79
2022/07/07 07:50:29;;;;;;;5.45;0.93;;;15.60;99.90;;;;;;5062695;28;20048;-79
2022/07/07 07:52:54;;;;;;;6.28;0.95;;;15.60;99.90;;;;;;5060822;28;20067;-78
2022/07/07 07:55:21;;;;;;;6.15;0.88;;;15.50;99.90;;;;;;5054177;28;20044;-79
2022/07/07 07:57:48;;;;;;;5.70;0.80;;;15.50;99.90;;;;;;5054459;28;20037;-79
2022/07/07 08:00:16;;;;;;;5.82;1.00;;;16.60;99.90;;;;;;5070730;28;20044;-79
2022/07/07 08:02:42;;;;;;;7.40;1.00;;;15.60;99.90;;;;;;5071073;28;20040;-78
2022/07/07 08:05:10;;;;;;;3.95;0.60;;;15.70;99.90;;;;;;5064544;28;20036;-78
2022/07/07 08:07:36;;;;;;;3.90;0.77;;;15.80;99.90;;;;;;5063613;28;20044;-79
2022/07/07 08:10:02;;;;;;;4.72;0.47;;;15.80;99.90;;;;;;5067447;28;20556;-79
2022/07/07 08:12:28;;;;;;;4.03;0.45;;;15.80;99.90;;;;;;5070920;28;20040;-79
2022/07/07 08:14:54;;;;;;;4.50;0.70;;;15.80;99.90;;;;;;5070916;28;20429;-79
2022/07/07 08:17:21;;;;;;;7.68;0.77;;;16.60;99.90;;;;;;5072056;28;20041;-80
2022/07/07 08:19:47;;;;;;;7.97;0.93;;;15.90;99.90;;;;;;5069913;28;20051;-80
2022/07/07 08:22:13;;;;;;;7.68;1.00;;;17.00;99.90;;;;;;5070733;28;20044;-80
2022/07/07 08:24:38;;;;;;;8.38;1.20;;;16.00;99.90;;;;;;5055157;28;20048;-79
2022/07/07 08:27:04;;;;;;;8.00;1.05;;;16.00;99.90;;;;;;5068623;28;20454;-79
2022/07/07 08:29:30;;;;;;;9.45;1.30;;;16.00;99.90;;;;;;5069668;28;20035;-79
2022/07/07 08:31:55;;;;;;;8.88;1.13;;;16.00;99.90;;;;;;5070574;28;20041;-79
2022/07/07 08:34:21;;;;;;;6.60;1.10;;;16.70;99.90;;;;;;5070249;28;20048;-80
2022/07/07 08:36:47;;;;;;;13.00;1.90;;;16.00;99.90;;;;;;5051858;28;20396;-79
2022/07/07 08:39:13;;;;;;;9.15;1.55;;;16.00;99.90;;;;;;5068823;28;20387;-79
2022/07/07 08:41:39;;;;;;;12.98;1.88;;;16.00;99.90;;;;;;5070713;28;20355;-80
2022/07/07 08:44:06;;;;;;;6.82;1.48;;;16.10;99.90;;;;;;5069260;28;20443;-79
2022/07/07 08:46:31;;;;;;;8.70;1.30;;;16.80;99.90;;;;;;5069921;28;20520;-79
2022/07/07 08:48:57;;;;;;;6.82;1.17;;;16.10;99.90;;;;;;5062156;28;20068;-79
2022/07/07 08:51:23;;;;;;;6.28;1.35;;;16.10;99.90;;;;;;5061572;28;20108;-78
2022/07/07 08:53:51;;;;;;;9.68;1.40;;;16.20;99.90;;;;;;5071337;28;20032;-77
2022/07/07 08:56:18;;;;;;;12.48;1.45;;;16.50;99.90;;;;;;5071187;28;20044;-80
2022/07/07 08:58:44;;;;;;;8.57;1.85;;;16.20;99.90;;;;;;5067807;28;20572;-80
2022/07/07 09:01:09;;;;;;;12.35;1.80;;;16.30;99.90;;;;;;5068050;28;20080;-77
2022/07/07 09:03:35;;;;;;;9.38;1.75;;;16.40;99.90;;;;;;5068037;28;20072;-78
2022/07/07 09:06:01;;;;;;;4.45;1.52;;;16.40;99.90;;;;;;5066017;28;20055;-78
2022/07/07 09:08:29;;;;;;;8.98;1.50;;;16.30;99.90;;;;;;5063750;28;20041;-78
2022/07/07 09:10:56;;;;;;;8.10;1.95;;;16.20;99.90;;;;;;5062882;28;20041;-79
2022/07/07 09:13:25;;;;;;;6.85;1.65;;;16.20;99.90;;;;;;5068384;28;20033;-79
2022/07/07 09:15:56;;;;;;;6.15;1.38;;;16.50;99.90;;;;;;5067494;28;20458;-78
2022/07/07 09:18:30;;;;;;;8.55;1.63;;;16.20;99.90;;;;;;5064677;28;20029;-80
2022/07/07 09:20:57;;;;;;;6.85;1.13;;;16.30;99.90;;;;;;5061842;28;20048;-79
2022/07/07 09:23:22;;;;;;;6.65;1.15;;;16.40;99.90;;;;;;5044602;28;20040;-79
2022/07/07 09:25:48;;;;;;;5.97;1.00;;;16.40;99.90;;;;;;5068210;28;20521;-80
2022/07/07 09:28:14;;;;;;;5.55;1.10;;;16.50;99.90;;;;;;5060613;28;20037;-79
2022/07/07 09:30:45;;;;;;;6.70;1.10;;;16.50;99.90;;;;;;5067419;28;20044;-78
2022/07/07 09:33:22;;;;;;;6.22;1.13;;;16.50;99.90;;;;;;5068603;28;20115;-79
2022/07/07 09:38:37;;;;;;;4.93;1.30;;;16.40;99.90;;;;;;5068430;28;20053;-79
2022/07/07 09:41:05;;;;;;;3.47;0.73;;;17.20;99.90;;;;;;5068198;28;20487;-79
2022/07/07 09:43:58;;;;;;;12.27;3.53;;;16.40;99.90;;;;;;5068511;28;20130;-79
2022/07/07 09:46:26;;;;;;;5.40;1.48;;;16.40;99.90;;;;;;5068443;28;20455;-78
2022/07/07 09:48:53;;;;;;;5.63;0.93;;;16.20;99.90;;;;;;5069473;28;20032;-79
2022/07/07 09:51:33;;;;;;;9.65;1.58;;;16.30;99.90;;;;;;5067134;28;20502;-78
2022/07/07 09:54:03;;;;;;;5.85;1.00;;;16.90;99.90;;;;;;5058680;28;20060;-80
2022/07/07 09:56:37;;;;;;;11.60;1.13;;;16.30;99.90;;;;;;5068365;28;20106;-79
2022/07/07 09:59:08;;;;;;;5.40;0.98;;;16.40;99.90;;;;;;5050053;28;20505;-78
2022/07/07 10:01:36;;;;;;;8.45;1.25;;;16.40;99.90;;;;;;5067573;28;20564;-79
2022/07/07 10:04:10;;;;;;;6.15;1.05;;;16.40;99.90;;;;;;5058076;28;20040;-80
2022/07/07 10:06:38;;;;;;;7.53;1.48;;;16.30;99.90;;;;;;5070112;28;20054;-78
2022/07/07 10:09:05;;;;;;;4.97;0.98;;;16.20;99.90;;;;;;5033990;28;20136;-79
2022/07/07 10:11:45;;;;;;;11.10;1.20;;;16.20;99.90;;;;;;5066759;28;20093;-79
2022/07/07 10:14:22;;;;;;;12.02;2.10;;;16.10;99.90;;;;;;5065103;28;20124;-77
2022/07/07 10:16:51;;;;;;;7.50;1.25;;;16.10;99.90;;;;;;5048802;28;20064;-77
2022/07/07 10:19:19;;;;;;;7.97;1.48;;;16.00;99.90;;;;;;5068844;28;20430;-78
2022/07/07 10:21:47;;;;;;;11.65;1.58;;;15.90;99.90;;;;;;5070500;28;20044;-79
2022/07/07 10:24:15;;;;;;;8.57;1.33;;;15.90;99.90;;;;;;5064629;28;20068;-79
2022/07/07 10:26:46;;;;;;;15.15;3.10;;;15.90;99.90;;;;;;5070451;28;20071;-79
2022/07/07 10:29:12;;;;;;;6.80;1.13;;;15.90;99.90;;;;;;5056341;28;20045;-81
2022/07/07 10:31:38;;;;;;;10.98;1.77;;;16.30;99.90;;;;;;5061220;28;20444;-79
2022/07/07 10:34:07;;;;;;;8.48;1.35;;;15.70;99.90;;;;;;5051915;28;20507;-79
2022/07/07 10:36:52;;;;;;;8.90;2.17;;;15.70;99.90;;;;;;5070880;28;20091;-80
2022/07/07 10:39:21;;;;;;;13.25;2.47;;;15.70;99.90;;;;;;5035791;28;20055;-79
2022/07/07 10:42:04;;;;;;;11.88;1.58;;;15.80;99.90;;;;;;5051778;28;20079;-79
2022/07/07 10:44:33;;;;;;;12.75;2.55;;;15.80;99.90;;;;;;5070600;28;20087;-79
2022/07/07 10:47:03;;;;;;;12.82;1.50;;;15.80;99.90;;;;;;5070073;28;20123;-80
2022/07/07 10:49:41;;;;;;;11.48;1.58;;;15.90;99.90;;;;;;5061590;28;20124;-79
2022/07/07 10:52:12;;;;;;;12.85;1.75;;;15.90;99.90;;;;;;5057973;28;20045;-78
2022/07/07 10:54:41;;;;;;;13.15;5.13;;;15.90;99.90;;;;;;5071156;28;20051;-79
2022/07/07 10:57:21;;;;;;;11.52;1.70;;;15.90;99.90;;;;;;5070375;28;20458;-79
2022/07/07 11:00:00;;;;;;;10.07;1.48;;;15.90;99.90;;;;;;5061614;28;20494;-78
2022/07/07 11:02:30;;;;;;;11.05;1.88;;;15.90;99.90;;;;;;5070748;28;20447;-81
2022/07/07 11:04:57;;;;;;;17.92;2.67;;;15.80;99.90;;;;;;5058633;28;20383;-79
2022/07/07 11:07:27;;;;;;;22.52;2.80;;;15.90;99.90;;;;;;5062401;28;20045;-80
2022/07/07 11:09:57;;;;;;;19.60;2.72;;;15.80;99.90;;;;;;5048739;28;20530;-79
2022/07/07 11:12:44;;;;;;;15.68;3.22;;;15.80;99.90;;;;;;5067922;28;20119;-80
2022/07/07 11:15:22;;;;;;;16.42;2.75;;;15.80;99.90;;;;;;5062140;28;20089;-79
2022/07/07 11:18:07;;;;;;;19.13;3.10;;;15.70;99.90;;;;;;5060934;28;20126;-79
2022/07/07 11:20:32;;;;;;;17.90;3.50;;;16.20;99.90;;;;;;5064092;28;20040;-80
2022/07/07 11:23:12;;;;;;;15.07;2.25;;;15.70;99.90;;;;;;5069372;28;20060;-80
2022/07/07 11:25:39;;;;;;;13.13;2.28;;;15.70;99.90;;;;;;5062556;28;20120;-79
2022/07/07 11:28:06;;;;;;;15.05;2.53;;;16.00;99.90;;;;;;5051801;28;20044;-79
2022/07/07 11:30:33;;;;;;;14.43;2.53;;;15.70;99.90;;;;;;5069872;28;20391;-79
2022/07/07 11:33:00;;;;;;;10.60;1.30;;;15.70;99.90;;;;;;5056107;28;20053;-80
2022/07/07 11:35:30;;;;;;;9.57;2.05;;;15.80;99.90;;;;;;5069824;28;20487;-79
2022/07/07 11:37:57;;;;;;;14.10;2.47;;;15.80;99.90;;;;;;5050520;28;20124;-80
2022/07/07 11:40:23;;;;;;;13.13;2.58;;;15.80;99.90;;;;;;5069651;28;20091;-80
2022/07/07 11:42:50;;;;;;;12.43;1.83;;;15.80;99.90;;;;;;5068403;28;20059;-77
2022/07/07 11:45:23;;;;;;;8.35;2.22;;;15.80;99.90;;;;;;5071239;28;20048;-78
2022/07/07 11:47:50;;;;;;;13.25;2.42;;;15.80;99.90;;;;;;5069513;28;20116;-79
2022/07/07 11:50:16;;;;;;;9.27;2.22;;;15.80;99.90;;;;;;5069247;28;20044;-78
2022/07/07 11:52:50;;;;;;;15.50;2.10;;;15.80;99.90;;;;;;5069283;28;20469;-76
2022/07/07 11:55:18;;;;;;;12.95;1.67;;;15.80;99.90;;;;;;5069824;28;20037;-78
2022/07/07 11:57:49;;;;;;;15.52;2.03;;;15.80;99.90;;;;;;5050188;28;20431;-77
2022/07/07 12:00:18;;;;;;;12.27;1.85;;;15.80;99.90;;;;;;5069014;28;20041;-78
2022/07/07 12:02:45;;;;;;;16.27;2.58;;;15.80;99.90;;;;;;5068742;28;20059;-79
2022/07/07 12:05:11;;;;;;;11.48;2.00;;;15.80;99.90;;;;;;5068845;28;20100;-77
2022/07/07 12:07:38;;;;;;;15.13;2.67;;;15.80;99.90;;;;;;5069289;28;20048;-77
2022/07/07 12:10:17;;;;;;;13.50;2.28;;;15.90;99.90;;;;;;5069033;28;20036;-80
2022/07/07 12:12:56;;;;;;;18.30;2.30;;;16.00;99.90;;;;;;5068277;28;20428;-78
2022/07/07 12:15:24;;;;;;;12.05;2.28;;;16.10;99.90;;;;;;5056488;28;20410;-77
2022/07/07 12:17:49;;;;;;;16.83;2.80;;;16.10;99.90;;;;;;5068059;28;20110;-77
2022/07/07 12:20:16;;;;;;;13.77;2.05;;;16.20;99.90;;;;;;5068619;28;20080;-77
2022/07/07 12:22:46;;;;;;;11.98;2.83;;;16.10;99.90;;;;;;5068454;28;20051;-76
2022/07/07 12:25:12;;;;;;;15.55;3.30;;;16.00;99.90;;;;;;5068308;28;20047;-78
2022/07/07 12:28:13;;;;;;;13.15;2.28;;;16.00;99.90;;;;;;5050216;28;20487;-77
2022/07/07 12:30:56;;;;;;;16.33;3.08;;;16.00;99.90;;;;;;4986159;28;20046;-77
2022/07/07 12:33:35;;;;;;;16.63;3.03;;;16.50;99.90;;;;;;5056750;28;20040;-80
2022/07/07 12:36:18;;;;;;;14.02;2.85;;;16.00;99.90;;;;;;5068708;28;20048;-79
2022/07/07 12:38:55;;;;;;;14.52;2.20;;;16.10;99.90;;;;;;5067885;28;20086;-80
2022/07/07 12:41:32;;;;;;;13.45;2.33;;;16.10;99.90;;;;;;5050469;28;20056;-79
2022/07/07 12:44:15;;;;;;;10.30;2.10;;;16.10;99.90;;;;;;5050109;28;20430;-78
2022/07/07 12:46:42;;;;;;;8.68;1.85;;;16.20;99.90;;;;;;5059255;28;20066;-79
2022/07/07 12:49:08;;;;;;;11.98;1.98;;;16.20;99.90;;;;;;5068850;28;20040;-77